sensor_id;sensor_type;location;lat;lon;timestamp;P1;durP1;ratioP1;P2;durP2;ratioP2
26201;SDS011;13944;28.562;77.188;2023-12-14T05:56:21;141.90;;;79.57;;
26201;SDS011;13944;28.562;77.188;2023-12-14T05:58:48;137.23;;;77.90;;
26201;SDS011;13944;28.562;77.188;2023-12-14T09:13:47;60.57;;;35.67;;
26201;SDS011;13944;28.562;77.188;2023-12-14T09:16:16;81.57;;;35.67;;
26201;SDS011;13944;28.562;77.188;2023-12-14T09:18:58;80.33;;;36.50;;
26201;SDS011;13944;28.562;77.188;2023-12-14T09:21:51;69.80;;;34.30;;
26201;SDS011;13944;28.562;77.188;2023-12-14T09:24:18;65.17;;;31.97;;
26201;SDS011;13944;28.562;77.188;2023-12-14T09:29:54;53.00;;;30.40;;
26201;SDS011;13944;28.562;77.188;2023-12-14T09:32:42;55.07;;;30.70;;
26201;SDS011;13944;28.562;77.188;2023-12-14T09:35:32;62.10;;;34.57;;
26201;SDS011;13944;28.562;77.188;2023-12-14T09:38:00;66.00;;;35.90;;
26201;SDS011;13944;28.562;77.188;2023-12-14T09:40:36;60.87;;;34.40;;
26201;SDS011;13944;28.562;77.188;2023-12-14T09:43:10;67.20;;;35.23;;
26201;SDS011;13944;28.562;77.188;2023-12-14T09:45:42;60.97;;;36.00;;
26201;SDS011;13944;28.562;77.188;2023-12-14T09:48:10;61.17;;;35.53;;
26201;SDS011;13944;28.562;77.188;2023-12-14T09:50:40;63.03;;;35.83;;
26201;SDS011;13944;28.562;77.188;2023-12-14T09:53:18;58.93;;;33.47;;
26201;SDS011;13944;28.562;77.188;2023-12-14T09:55:44;73.70;;;37.83;;
26201;SDS011;13944;28.562;77.188;2023-12-14T09:58:17;64.67;;;36.17;;
26201;SDS011;13944;28.562;77.188;2023-12-14T10:00:44;67.80;;;33.80;;
26201;SDS011;13944;28.562;77.188;2023-12-14T10:03:20;68.43;;;36.67;;
26201;SDS011;13944;28.562;77.188;2023-12-14T10:05:50;59.83;;;33.17;;
26201;SDS011;13944;28.562;77.188;2023-12-14T10:08:17;55.13;;;30.90;;
26201;SDS011;13944;28.562;77.188;2023-12-14T10:10:50;68.03;;;37.20;;
26201;SDS011;13944;28.562;77.188;2023-12-14T10:13:37;59.57;;;31.87;;
26201;SDS011;13944;28.562;77.188;2023-12-14T10:16:04;70.40;;;36.20;;
26201;SDS011;13944;28.562;77.188;2023-12-14T10:18:31;64.53;;;35.23;;
26201;SDS011;13944;28.562;77.188;2023-12-14T10:21:08;56.95;;;33.17;;
26201;SDS011;13944;28.562;77.188;2023-12-14T10:23:35;69.47;;;36.07;;
26201;SDS011;13944;28.562;77.188;2023-12-14T10:26:04;60.43;;;33.03;;
26201;SDS011;13944;28.562;77.188;2023-12-14T10:28:36;60.27;;;34.90;;
26201;SDS011;13944;28.562;77.188;2023-12-14T10:31:02;62.70;;;35.97;;
26201;SDS011;13944;28.562;77.188;2023-12-14T10:33:48;64.13;;;36.63;;
26201;SDS011;13944;28.562;77.188;2023-12-14T10:36:43;58.80;;;34.67;;
26201;SDS011;13944;28.562;77.188;2023-12-14T10:39:14;62.73;;;37.20;;
26201;SDS011;13944;28.562;77.188;2023-12-14T10:41:40;64.27;;;35.90;;
26201;SDS011;13944;28.562;77.188;2023-12-14T10:44:27;69.63;;;38.90;;
26201;SDS011;13944;28.562;77.188;2023-12-14T10:47:01;59.93;;;33.43;;
26201;SDS011;13944;28.562;77.188;2023-12-14T10:49:36;77.13;;;41.50;;
26201;SDS011;13944;28.562;77.188;2023-12-14T10:52:04;92.00;;;39.77;;
26201;SDS011;13944;28.562;77.188;2023-12-14T10:54:31;82.50;;;43.33;;
26201;SDS011;13944;28.562;77.188;2023-12-14T10:56:58;70.73;;;37.90;;
26201;SDS011;13944;28.562;77.188;2023-12-14T11:02:20;95.93;;;44.20;;
26201;SDS011;13944;28.562;77.188;2023-12-14T11:07:48;83.60;;;44.07;;
26201;SDS011;13944;28.562;77.188;2023-12-14T11:10:19;79.37;;;43.47;;
26201;SDS011;13944;28.562;77.188;2023-12-14T11:15:50;89.93;;;45.93;;
26201;SDS011;13944;28.562;77.188;2023-12-14T11:18:21;85.20;;;45.23;;
26201;SDS011;13944;28.562;77.188;2023-12-14T11:20:58;112.97;;;47.47;;
26201;SDS011;13944;28.562;77.188;2023-12-14T11:23:28;115.40;;;44.90;;
26201;SDS011;13944;28.562;77.188;2023-12-14T11:26:15;115.13;;;45.60;;
26201;SDS011;13944;28.562;77.188;2023-12-14T11:28:45;137.13;;;50.13;;
26201;SDS011;13944;28.562;77.188;2023-12-14T11:31:12;129.13;;;48.40;;
26201;SDS011;13944;28.562;77.188;2023-12-14T11:36:26;148.00;;;53.40;;
26201;SDS011;13944;28.562;77.188;2023-12-14T11:38:56;256.73;;;61.17;;
26201;SDS011;13944;28.562;77.188;2023-12-14T11:41:22;259.47;;;63.60;;
26201;SDS011;13944;28.562;77.188;2023-12-14T11:43:50;210.00;;;56.00;;
26201;SDS011;13944;28.562;77.188;2023-12-14T11:46:20;175.73;;;55.03;;
26201;SDS011;13944;28.562;77.188;2023-12-14T11:48:47;150.77;;;51.47;;
26201;SDS011;13944;28.562;77.188;2023-12-14T11:51:14;146.80;;;51.90;;
26201;SDS011;13944;28.562;77.188;2023-12-14T11:53:43;129.07;;;50.63;;
26201;SDS011;13944;28.562;77.188;2023-12-14T11:59:01;118.07;;;50.77;;
26201;SDS011;13944;28.562;77.188;2023-12-14T12:01:33;114.87;;;52.10;;
26201;SDS011;13944;28.562;77.188;2023-12-14T12:04:07;173.30;;;54.80;;
26201;SDS011;13944;28.562;77.188;2023-12-14T12:07:06;186.03;;;54.87;;
26201;SDS011;13944;28.562;77.188;2023-12-14T12:09:38;165.43;;;54.87;;
26201;SDS011;13944;28.562;77.188;2023-12-14T12:12:06;178.07;;;56.80;;
26201;SDS011;13944;28.562;77.188;2023-12-14T12:14:33;156.77;;;59.03;;
26201;SDS011;13944;28.562;77.188;2023-12-14T12:17:01;164.97;;;59.67;;
26201;SDS011;13944;28.562;77.188;2023-12-14T12:19:28;146.00;;;59.30;;
26201;SDS011;13944;28.562;77.188;2023-12-14T12:21:57;135.00;;;59.17;;
26201;SDS011;13944;28.562;77.188;2023-12-14T12:24:24;150.37;;;59.50;;
26201;SDS011;13944;28.562;77.188;2023-12-14T12:26:51;136.63;;;60.53;;
26201;SDS011;13944;28.562;77.188;2023-12-14T12:29:17;128.87;;;59.63;;
26201;SDS011;13944;28.562;77.188;2023-12-14T12:31:44;142.60;;;61.23;;
26201;SDS011;13944;28.562;77.188;2023-12-14T12:34:11;130.23;;;62.50;;
26201;SDS011;13944;28.562;77.188;2023-12-14T12:36:38;146.73;;;62.83;;
26201;SDS011;13944;28.562;77.188;2023-12-14T12:39:04;157.03;;;66.60;;
26201;SDS011;13944;28.562;77.188;2023-12-14T12:41:31;156.23;;;68.87;;
26201;SDS011;13944;28.562;77.188;2023-12-14T12:44:03;134.07;;;66.67;;
